EmailTwitter


Observations de surface / France / LFMK (07635)

Régions: Québec | Canada | États-Unis | Europe | France | UK | Ailleurs
Station
Affichage
Infos & localisation pour LFMK (07635) | Aide pour décoder les METARs

Observations prises le 2018-04-21 à 22H30 UTC à CARCASSONNE/SALV, FR (LFMK)

Température: 17.0 Celsius

Point de rosée: 8.0 Celsius

Humidité relative: 55%

Vents: Est-sud-est à 9 km/h ou 5 noeuds.

Pression au niveau moyen de la mer: 101.70 kilopascals.

Observation METAR:

LFMK 212230Z AUTO 11005KT 080V140 CAVOK 17/08 Q1017=